WEATHER DATA

TODAY
Time Temp. Dewp. Hum. Bar. 1h Prec. 24h Prec.
00:05 10.4 8.2 86 998.7 0.0000 0.0000
00:15 10.3 8.1 86 998.8 0.1010 0.1000
00:35 10.2 8.1 87 998.8 0.1010 0.1000
00:45 10.2 8.3 88 998.6 0.2020 0.2000
00:54 10.2 8.3 88 998.7 0.3030 0.3000
01:04 10.2 8.3 88 998.7 0.2020 0.3000
01:14 10.2 8.5 89 998.8 0.3030 0.4000
01:24 10.2 8.5 89 998.9 0.3030 0.4000
01:44 10.3 8.6 89 999.1 0.5050 0.8000
01:54 10.4 8.7 89 999.3 0.6060 0.9000
02:04 10.4 8.8 90 999.2 0.5050 0.9000
02:15 10.5 8.9 90 999.3 0.5050 0.9000
02:25 10.6 9 90 999.5 0.4040 0.9000
02:34 10.6 9 90 999.7 0.2020 1.0000
02:44 10.7 9.1 90 999.7 0.1010 1.0000
03:05 10.8 9.2 90 1000 0.1010 1.0000
03:15 10.8 9.2 90 1000.3 0.1010 1.0000
03:25 10.9 9.3 90 1000.3 0.1010 1.0000
03:36 10.8 9.2 90 1000.4 0.0000 1.0000
03:46 10.8 9.2 90 1000.3 0.0000 1.0000
03:56 10.7 9 89 1000.5 0.0000 1.0000
04:06 10.6 8.9 89 1000.5 0.0000 1.0000
04:16 10.5 8.8 89 1000.7 0.0000 1.0000
04:26 10.5 8.9 90 1000.9 0.0000 1.0000
04:37 10.4 8.8 90 1001.1 0.0000 1.0000
04:47 10.4 8.8 90 1001.1 0.0000 1.0000
04:57 10.3 8.7 90 1001.1 0.0000 1.0000
05:22 10.1 8.4 89 1001.4 0.0000 1.0000
05:32 10 8.3 89 1001.5 0.0000 1.0000
05:42 9.9 8.3 90 1001.7 0.0000 1.0000
05:52 9.8 8.2 90 1001.8 0.0000 1.0000
06:03 9.7 8.1 90 1002 0.0000 1.0000
06:12 9.7 8.1 90 1002.1 0.0000 1.0000
06:22 9.6 8 90 1002 0.0000 1.0000
06:33 9.6 8 90 1002.1 0.0000 1.0000
06:43 9.5 7.9 90 1002.3 0.0000 1.0000
06:53 9.4 7.8 90 1002.3 0.0000 1.0000
07:02 9.4 7.8 90 1002.5 0.0000 1.0000
07:13 9.4 7.8 90 1002.7 0.0000 1.0000
07:23 9.4 7.8 90 1002.7 0.0000 1.0000
07:33 9.5 7.9 90 1002.9 0.0000 1.0000
07:44 9.6 8 90 1003.1 0.0000 1.0000
07:53 9.7 8.1 90 1003.2 0.0000 1.0000
08:03 9.8 8.2 90 1003.3 0.0000 1.0000
08:13 9.9 8.3 90 1003.8 0.0000 1.0000
08:24 10 8.4 90 1004 0.0000 1.0000
08:33 10.2 8.6 90 1004.3 0.0000 1.0000
08:43 10.3 8.7 90 1004.1 0.1010 1.1000
08:54 10.3 8.7 90 1003.9 0.2020 1.2000
09:04 10.3 8.6 89 1003.5 0.2020 1.2000
09:14 10.3 8.6 89 1003.5 0.2020 1.2000
09:23 10.3 8.4 88 1003.6 0.2020 1.2000
09:34 10.2 8.3 88 1003.7 0.2020 1.2000
09:44 10.3 8.6 89 1004 0.0000 1.2000
10:04 10.4 8.7 89 1004 0.0000 1.2000
10:14 10.7 9 89 1004.1 0.0000 1.2000
10:24 11.4 9.7 89 1004 0.0000 1.2000
10:34 11.8 9.9 88 1004 0.0000 1.2000
10:45 12.3 10 86 1004.1 0.0000 1.2000
10:54 12.6 10.1 85 1004.2 0.0000 1.2000
11:04 12.6 9.8 83 1004.2 0.0000 1.2000
11:15 13 10.2 83 1004.3 0.0000 1.2000
11:25 13.2 9.8 80 1004.1 0.0000 1.2000
11:35 13.3 9.9 80 1004.1 0.0000 1.2000
11:44 13.5 9.9 79 1004.2 0.0000 1.2000
11:55 13.6 10 79 1004.3 0.0000 1.2000
12:05 13.5 9.7 78 1004.4 0.0000 1.2000
12:15 13.4 9.8 79 1004.3 0.0000 1.2000
12:25 13.4 9.8 79 1004.3 0.0000 1.2000
12:35 13.6 10 79 1004.4 0.0000 1.2000
12:45 13.8 10 78 1004.5 0.0000 1.2000
12:55 13.9 9.9 77 1004.6 0.0000 1.2000
13:06 13.8 9.8 77 1004.7 0.0000 1.2000
13:15 13.9 9.9 77 1004.6 0.0000 1.2000
13:25 13.8 9.6 76 1004.6 0.0000 1.2000
13:35 13.6 9.5 76 1004.6 0.0000 1.2000
13:46 13.6 9.6 77 1004.5 0.0000 1.2000
13:56 13.7 9.4 75 1004.3 0.0000 1.2000
14:05 13.9 9.5 75 1004.4 0.0000 1.2000
14:16 13.8 9.3 74 1004.3 0.0000 1.2000
14:26 13.7 9.4 75 1004.3 0.0000 1.2000
14:36 13.4 9.1 75 1004.5 0.0000 1.2000
14:46 13.3 9.2 76 1004.4 0.0000 1.2000
14:56 13.3 9.4 77 1004.5 0.0000 1.2000
15:06 13.4 9.1 75 1004.6 0.0000 1.2000
15:16 13.3 8.8 74 1004.6 0.0000 1.2000
15:27 13.1 8.8 75 1004.6 0.0000 1.2000
15:36 12.9 8.8 76 1004.5 0.0000 1.2000
15:46 12.8 8.9 77 1004.5 0.0000 1.2000
15:56 12.7 8.8 77 1004.5 0.0000 1.2000
16:07 12.5 8.8 78 1004.7 0.0000 1.2000
16:16 12.4 8.7 78 1005 0.0000 1.2000
16:26 12.2 8.7 79 1005 0.0000 1.2000
16:37 11.9 8.6 80 1004.8 0.0000 1.2000
16:47 11.8 8.5 80 1004.8 0.0000 1.2000
16:57 11.6 8.5 81 1004.9 0.0000 1.2000
17:07 11.5 8.5 82 1004.7 0.0000 1.2000
17:17 11.3 8.3 82 1004.8 0.0000 1.2000
17:27 11.1 8.3 83 1004.8 0.0000 1.2000

DAY STATISTIC

2020-10-28
TEMPERATURE
AVERAGE
11.4
HIGH
13.9
12:55
LOW
9.4
06:53
PRESSURE
AVERAGE
1002.7
HIGH
1005.0
16:16
LOW
998.6
00:45
DEWPOINT
AVERAGE
8.9
HIGH
10.2
11:15
LOW
7.8
06:53
HUMIDITY
AVERAGE
85
HIGH
90
02:04
LOW
74
14:16
PRECIPITATION
RAIN HOUR
0.6
RAIN DAY
1.2
TEMPERATURE (°C)
LOW
9.4
HIGH
13.9
AVERAGE
11.4
PRESSURE (hpa)
LOW
998.6
HIGH
1005.0
AVERAGE
1002.7
DEVICE